createdAt,value
2019-05-16T00:02:28.439Z,11.10
2019-05-16T00:05:18.797Z,11.10
2019-05-16T00:08:12.611Z,11.00
2019-05-16T00:10:58.269Z,11.00
2019-05-16T00:13:48.817Z,10.90
2019-05-16T00:16:38.105Z,10.80
2019-05-16T00:19:28.777Z,10.70
2019-05-16T00:22:18.455Z,10.70
2019-05-16T00:25:08.700Z,10.70
2019-05-16T00:27:58.615Z,10.60
2019-05-16T00:30:48.706Z,10.60
2019-05-16T00:33:38.276Z,10.40
2019-05-16T00:36:27.795Z,10.40
2019-05-16T00:39:18.755Z,10.30
2019-05-16T00:42:08.832Z,10.30
2019-05-16T00:44:58.352Z,10.30
2019-05-16T00:47:47.962Z,10.30
2019-05-16T00:50:38.714Z,10.30
2019-05-16T00:53:28.968Z,10.30
2019-05-16T00:56:18.768Z,10.30
2019-05-16T00:59:09.471Z,10.30
2019-05-16T01:01:58.902Z,10.20
2019-05-16T01:04:48.707Z,10.20
2019-05-16T01:07:39.167Z,10.20
2019-05-16T01:10:29.593Z,10.20
2019-05-16T01:13:18.725Z,10.10
2019-05-16T01:16:08.648Z,10.10
2019-05-16T01:18:58.989Z,10.00
2019-05-16T01:21:32.691Z,10.00
2019-05-16T01:24:22.019Z,10.00
2019-05-16T01:27:11.336Z,9.90
2019-05-16T01:30:00.542Z,9.90
2019-05-16T01:32:49.850Z,9.90
2019-05-16T01:35:41.748Z,9.90
2019-05-16T01:38:29.573Z,9.90
2019-05-16T01:41:18.609Z,9.80
2019-05-16T01:44:07.877Z,9.80
2019-05-16T01:46:58.566Z,9.80
2019-05-16T01:49:48.928Z,9.80
2019-05-16T01:52:38.527Z,9.80
2019-05-16T01:55:28.586Z,9.80
2019-05-16T01:58:19.751Z,9.80
2019-05-16T02:01:13.339Z,9.80
2019-05-16T02:03:58.968Z,9.80
2019-05-16T02:06:54.597Z,9.70
2019-05-16T02:09:38.837Z,9.70
2019-05-16T02:12:27.933Z,9.70
2019-05-16T02:15:18.243Z,9.70
2019-05-16T02:18:08.396Z,9.70
2019-05-16T02:21:00.918Z,9.70
2019-05-16T02:23:51.500Z,9.70
2019-05-16T02:26:39.514Z,9.70
2019-05-16T02:29:29.896Z,9.70
2019-05-16T02:32:22.010Z,9.70
2019-05-16T02:35:11.855Z,9.70
2019-05-16T02:38:00.938Z,9.70
2019-05-16T02:40:54.897Z,9.70
2019-05-16T02:43:41.996Z,9.60
2019-05-16T02:46:31.454Z,9.60
2019-05-16T02:49:21.651Z,9.60
2019-05-16T02:52:11.086Z,9.60
2019-05-16T02:55:00.862Z,9.60
2019-05-16T02:57:51.064Z,9.60
2019-05-16T03:00:36.125Z,9.70
2019-05-16T03:03:24.759Z,9.70
2019-05-16T03:06:14.608Z,9.70
2019-05-16T03:09:06.039Z,9.70
2019-05-16T03:12:01.061Z,9.70
2019-05-16T03:14:50.355Z,9.80
2019-05-16T03:17:41.928Z,9.80
2019-05-16T03:20:33.961Z,9.80
2019-05-16T03:23:23.384Z,9.80
2019-05-16T03:26:12.341Z,9.80
2019-05-16T03:29:01.544Z,9.80
2019-05-16T03:31:54.412Z,9.80
2019-05-16T03:34:43.877Z,9.90
2019-05-16T03:37:41.618Z,9.90
2019-05-16T03:40:25.907Z,9.80
2019-05-16T03:43:14.556Z,9.80
2019-05-16T03:46:03.183Z,9.90
2019-05-16T03:48:52.372Z,9.80
2019-05-16T03:51:42.216Z,9.90
2019-05-16T03:54:31.616Z,9.90
2019-05-16T03:57:21.204Z,9.90
2019-05-16T04:00:11.773Z,9.90
2019-05-16T04:03:01.434Z,9.90
2019-05-16T04:05:52.515Z,9.90
2019-05-16T04:08:35.956Z,9.90
2019-05-16T04:11:25.015Z,10.00
2019-05-16T04:14:14.561Z,10.00
2019-05-16T04:17:03.944Z,10.00
2019-05-16T04:19:52.822Z,10.10
2019-05-16T04:22:41.687Z,10.10
2019-05-16T04:25:31.215Z,10.00
2019-05-16T04:28:22.045Z,10.00
2019-05-16T04:30:52.802Z,10.00
2019-05-16T04:33:41.983Z,9.90
2019-05-16T04:36:32.637Z,9.90
2019-05-16T04:39:22.114Z,9.90
2019-05-16T04:42:11.652Z,9.90
2019-05-16T04:45:01.333Z,9.90
2019-05-16T04:47:51.423Z,10.00
2019-05-16T04:50:41.921Z,10.00
2019-05-16T04:53:31.890Z,10.10
2019-05-16T04:56:21.969Z,10.10
2019-05-16T04:59:16.238Z,10.20
2019-05-16T05:02:02.403Z,10.20
2019-05-16T05:04:51.515Z,10.20
2019-05-16T05:07:41.430Z,10.20
2019-05-16T05:10:31.211Z,10.30
2019-05-16T05:13:22.237Z,10.20
2019-05-16T05:16:10.639Z,10.20
2019-05-16T05:19:00.460Z,10.20
2019-05-16T05:21:51.383Z,10.20
2019-05-16T05:24:41.151Z,10.20
2019-05-16T05:27:30.408Z,10.20
2019-05-16T05:30:19.990Z,10.20
2019-05-16T05:33:10.139Z,10.10
2019-05-16T05:36:01.138Z,10.00
2019-05-16T05:39:00.250Z,10.00
2019-05-16T05:41:40.912Z,10.00
2019-05-16T05:44:30.713Z,10.00
2019-05-16T05:47:20.094Z,10.00
2019-05-16T05:50:11.219Z,10.00
2019-05-16T05:53:01.444Z,10.00
2019-05-16T05:55:51.784Z,10.00
2019-05-16T05:58:40.790Z,10.10
2019-05-16T06:01:31.453Z,10.00
2019-05-16T06:04:21.846Z,10.00
2019-05-16T06:07:10.991Z,10.10
2019-05-16T06:10:00.595Z,10.10
2019-05-16T06:12:50.308Z,10.10
2019-05-16T06:15:39.988Z,10.20
2019-05-16T06:18:30.577Z,10.10
2019-05-16T06:21:20.545Z,10.20
2019-05-16T06:24:10.758Z,10.20
2019-05-16T06:27:00.951Z,10.20
2019-05-16T06:29:50.253Z,10.30
2019-05-16T06:32:39.956Z,10.40
2019-05-16T06:35:29.926Z,10.50
2019-05-16T06:38:21.107Z,10.60
2019-05-16T06:41:10.778Z,10.70
2019-05-16T06:44:00.020Z,10.90
2019-05-16T06:47:00.437Z,11.00
2019-05-16T06:49:40.309Z,11.20
2019-05-16T06:52:30.114Z,11.50
2019-05-16T06:55:20.533Z,11.80
2019-05-16T06:58:11.871Z,11.90
2019-05-16T07:01:03.608Z,12.00
2019-05-16T07:03:51.686Z,12.00
2019-05-16T07:06:54.981Z,12.10
2019-05-16T07:09:31.547Z,12.10
2019-05-16T07:12:20.776Z,12.10
2019-05-16T07:15:12.593Z,12.20
2019-05-16T07:18:01.942Z,12.30
2019-05-16T07:20:51.563Z,12.30
2019-05-16T07:23:41.006Z,12.30
2019-05-16T07:26:30.993Z,12.40
2019-05-16T07:29:21.109Z,12.40
2019-05-16T07:32:12.493Z,12.40
2019-05-16T07:35:00.717Z,12.40
2019-05-16T07:37:50.185Z,12.40
2019-05-16T07:40:40.112Z,12.30
2019-05-16T07:43:30.906Z,12.30
2019-05-16T07:46:20.832Z,12.30
2019-05-16T07:49:11.465Z,12.40
2019-05-16T07:52:00.813Z,12.40
2019-05-16T07:54:50.698Z,12.50
2019-05-16T07:57:40.320Z,12.50
2019-05-16T08:00:47.566Z,12.70
2019-05-16T08:03:20.153Z,12.80
2019-05-16T08:06:10.903Z,13.00
2019-05-16T08:09:00.454Z,13.10
2019-05-16T08:11:50.119Z,13.20
2019-05-16T08:14:40.909Z,13.20
2019-05-16T08:17:31.487Z,13.30
2019-05-16T08:20:21.300Z,13.40
2019-05-16T08:23:11.502Z,13.50
2019-05-16T08:28:50.847Z,13.40
2019-05-16T08:31:43.045Z,13.30
2019-05-16T08:34:32.186Z,13.20
2019-05-16T08:37:37.454Z,13.00
2019-05-16T08:40:12.137Z,12.90
2019-05-16T08:43:01.594Z,12.70
2019-05-16T08:45:51.493Z,12.60
2019-05-16T08:50:11.943Z,13.50
2019-05-16T08:51:33.790Z,12.40
2019-05-16T08:54:22.792Z,12.40
2019-05-16T08:57:26.179Z,12.40
2019-05-16T09:00:02.304Z,12.40
2019-05-16T09:02:52.524Z,12.50
2019-05-16T09:05:43.001Z,12.50
2019-05-16T09:08:33.026Z,12.50
2019-05-16T09:10:21.438Z,12.50
2019-05-16T09:11:35.751Z,12.50
2019-05-16T09:14:13.197Z,12.50
2019-05-16T09:17:02.788Z,12.40
2019-05-16T09:19:51.947Z,12.40
2019-05-16T09:22:40.621Z,12.40
2019-05-16T09:25:29.407Z,12.60
2019-05-16T09:28:18.585Z,12.90
2019-05-16T09:31:07.703Z,13.10
2019-05-16T09:33:59.881Z,13.20
2019-05-16T09:36:49.206Z,13.40
2019-05-16T09:39:38.141Z,13.50
2019-05-16T09:42:27.819Z,13.70
2019-05-16T09:45:18.944Z,13.80
2019-05-16T09:48:08.280Z,13.90
2019-05-16T09:50:57.924Z,14.00
2019-05-16T09:53:47.474Z,14.00
2019-05-16T09:56:37.100Z,14.10
2019-05-16T09:59:26.986Z,14.10
2019-05-16T10:02:17.607Z,14.10
2019-05-16T10:05:12.874Z,14.20
2019-05-16T10:07:59.115Z,14.30
2019-05-16T10:10:48.870Z,14.40
2019-05-16T10:13:37.940Z,14.50
2019-05-16T10:16:27.575Z,14.60
2019-05-16T10:19:16.962Z,14.80
2019-05-16T10:22:07.346Z,14.90
2019-05-16T10:24:57.399Z,14.80
2019-05-16T10:27:47.560Z,14.70
2019-05-16T10:30:37.750Z,14.60
2019-05-16T10:33:27.764Z,14.80
2019-05-16T10:36:21.470Z,15.10
2019-05-16T10:39:08.024Z,15.40
2019-05-16T10:41:57.574Z,15.70
2019-05-16T10:44:48.475Z,15.80
2019-05-16T10:47:37.347Z,15.90
2019-05-16T10:50:27.705Z,16.00
2019-05-16T10:53:42.355Z,16.10
2019-05-16T10:56:07.785Z,16.10
2019-05-16T10:59:25.861Z,16.30
2019-05-16T11:01:47.275Z,16.40
2019-05-16T11:04:52.694Z,16.70
2019-05-16T11:07:29.835Z,16.90
2019-05-16T11:10:18.479Z,16.70
2019-05-16T11:13:08.321Z,16.80
2019-05-16T11:15:57.400Z,16.80
2019-05-16T11:18:46.861Z,16.70
2019-05-16T11:21:37.725Z,16.50
2019-05-16T11:24:29.359Z,16.40
2019-05-16T11:27:18.894Z,16.40
2019-05-16T11:30:09.888Z,16.70
2019-05-16T11:32:59.251Z,16.80
2019-05-16T11:35:48.192Z,16.80
2019-05-16T11:38:37.975Z,16.70
2019-05-16T11:41:27.710Z,16.80
2019-05-16T11:44:17.666Z,16.60
2019-05-16T11:47:08.221Z,16.70
2019-05-16T11:49:58.142Z,16.90
2019-05-16T11:52:47.788Z,17.20
2019-05-16T11:55:50.344Z,17.30
2019-05-16T11:58:26.810Z,17.60
2019-05-16T12:01:16.478Z,17.90
2019-05-16T12:04:07.955Z,18.00
2019-05-16T12:06:57.689Z,18.10
2019-05-16T12:09:54.586Z,18.20
2019-05-16T12:12:37.193Z,18.40
2019-05-16T12:15:27.353Z,18.40
2019-05-16T12:18:17.485Z,18.10
2019-05-16T12:21:07.705Z,18.10
2019-05-16T12:23:57.704Z,18.20
2019-05-16T12:26:47.984Z,18.30
2019-05-16T12:29:37.420Z,18.50
2019-05-16T12:32:27.674Z,18.40
2019-05-16T12:35:17.745Z,18.10
2019-05-16T12:38:08.172Z,18.00
2019-05-16T12:40:57.713Z,18.10
2019-05-16T12:43:53.141Z,18.00
2019-05-16T12:46:38.198Z,18.10
2019-05-16T12:49:27.042Z,18.20
2019-05-16T12:52:16.418Z,18.30
2019-05-16T12:55:05.886Z,18.40
2019-05-16T12:58:11.523Z,18.60
2019-05-16T13:00:53.972Z,18.60
2019-05-16T13:03:37.881Z,18.50
2019-05-16T13:06:27.742Z,18.40
2019-05-16T13:09:18.445Z,18.30
2019-05-16T13:12:08.148Z,18.20
2019-05-16T13:14:57.643Z,18.20
2019-05-16T13:17:47.507Z,18.00
2019-05-16T13:20:39.418Z,18.10
2019-05-16T13:23:27.439Z,18.10
2019-05-16T13:26:17.625Z,18.20
2019-05-16T13:29:07.394Z,18.20
2019-05-16T13:31:57.134Z,18.30
2019-05-16T13:34:46.980Z,18.20
2019-05-16T13:37:35.989Z,18.30
2019-05-16T13:40:27.478Z,18.50
2019-05-16T13:43:17.508Z,18.50
2019-05-16T13:46:07.516Z,18.50
2019-05-16T13:48:57.033Z,18.50
2019-05-16T13:51:46.774Z,18.40
2019-05-16T13:54:37.278Z,18.10
2019-05-16T13:57:28.322Z,17.70
2019-05-16T14:00:18.854Z,17.40
2019-05-16T14:03:08.462Z,17.30
2019-05-16T14:05:58.342Z,17.20
2019-05-16T14:08:47.320Z,17.10
2019-05-16T14:11:37.757Z,17.10
2019-05-16T14:14:37.406Z,17.30
2019-05-16T14:17:17.966Z,17.60
2019-05-16T14:20:14.651Z,17.80
2019-05-16T14:23:01.527Z,17.80
2019-05-16T14:25:48.957Z,17.60
2019-05-16T14:28:38.650Z,17.70
2019-05-16T14:31:28.360Z,17.70
2019-05-16T14:34:18.447Z,17.60
2019-05-16T14:37:07.928Z,17.50
2019-05-16T14:40:00.966Z,17.50
2019-05-16T14:42:48.111Z,17.40
2019-05-16T14:45:37.393Z,17.50
2019-05-16T14:48:27.934Z,17.40
2019-05-16T14:51:18.014Z,17.40
2019-05-16T14:54:09.275Z,17.20
2019-05-16T14:57:00.860Z,17.00
2019-05-16T14:59:49.617Z,16.90
2019-05-16T15:02:38.704Z,16.60
2019-05-16T15:05:28.038Z,16.40
2019-05-16T15:08:18.228Z,16.30
2019-05-16T15:11:07.830Z,16.20
2019-05-16T15:13:57.551Z,16.00
2019-05-16T15:16:48.720Z,15.90
2019-05-16T15:19:37.490Z,15.80
2019-05-16T15:22:27.362Z,15.70
2019-05-16T15:25:17.634Z,15.70
2019-05-16T15:28:07.742Z,15.80
2019-05-16T15:30:57.515Z,15.80
2019-05-16T15:33:47.598Z,15.80
2019-05-16T15:36:37.342Z,15.90
2019-05-16T15:39:27.623Z,15.90
2019-05-16T15:42:18.087Z,15.90
2019-05-16T15:45:08.480Z,15.90
2019-05-16T15:47:59.932Z,15.80
2019-05-16T15:50:48.211Z,15.80
2019-05-16T15:53:38.839Z,15.80
2019-05-16T15:56:27.953Z,15.90
2019-05-16T15:59:18.032Z,15.90
2019-05-16T16:02:07.522Z,15.90
2019-05-16T16:04:57.585Z,16.00
2019-05-16T16:07:48.177Z,16.10
2019-05-16T16:10:39.567Z,16.10
2019-05-16T16:13:28.704Z,16.10
2019-05-16T16:16:17.973Z,16.10
2019-05-16T16:19:07.070Z,16.10
2019-05-16T16:21:57.797Z,16.20
2019-05-16T16:24:47.854Z,16.70
2019-05-16T16:27:37.464Z,17.20
2019-05-16T16:30:27.762Z,17.30
2019-05-16T16:33:25.371Z,17.10
2019-05-16T16:36:08.113Z,16.80
2019-05-16T16:38:57.355Z,16.60
2019-05-16T16:41:47.845Z,16.30
2019-05-16T16:44:37.175Z,16.30
2019-05-16T16:47:26.908Z,16.10
2019-05-16T16:50:17.215Z,16.00
2019-05-16T16:53:07.097Z,16.00
2019-05-16T16:55:56.986Z,15.70
2019-05-16T16:58:46.718Z,15.50
2019-05-16T17:01:37.372Z,15.40
2019-05-16T17:04:26.742Z,15.50
2019-05-16T17:07:16.708Z,15.50
2019-05-16T17:10:07.673Z,15.40
2019-05-16T17:12:57.762Z,15.50
2019-05-16T17:15:47.294Z,15.40
2019-05-16T17:18:37.084Z,15.40
2019-05-16T17:21:26.430Z,15.30
2019-05-16T17:24:16.840Z,15.10
2019-05-16T17:27:07.849Z,15.10
2019-05-16T17:30:00.506Z,15.10
2019-05-16T17:32:48.044Z,15.10
2019-05-16T17:35:38.839Z,15.10
2019-05-16T17:38:27.741Z,15.00
2019-05-16T17:41:17.481Z,14.90
2019-05-16T17:44:06.925Z,14.90
2019-05-16T17:46:57.456Z,14.90
2019-05-16T17:49:46.723Z,14.80
2019-05-16T17:52:36.885Z,14.70
2019-05-16T17:55:26.967Z,14.70
2019-05-16T17:58:16.607Z,14.70
2019-05-16T18:00:47.460Z,14.70
2019-05-16T18:03:19.605Z,14.70
2019-05-16T18:05:49.845Z,14.70
2019-05-16T18:08:19.913Z,14.70
2019-05-16T18:10:50.155Z,14.70
2019-05-16T18:13:20.270Z,14.70
2019-05-16T18:15:50.516Z,14.70
2019-05-16T18:18:20.739Z,14.80
2019-05-16T18:20:58.018Z,14.80
2019-05-16T18:23:23.977Z,14.80
2019-05-16T18:25:54.376Z,14.60
2019-05-16T18:28:26.800Z,14.60
2019-05-16T18:30:57.391Z,14.50
2019-05-16T18:33:27.782Z,14.50
2019-05-16T18:35:58.234Z,14.50
2019-05-16T18:38:28.875Z,14.40
2019-05-16T18:40:59.349Z,14.30
2019-05-16T18:43:29.718Z,14.30
2019-05-16T18:46:00.461Z,14.30
2019-05-16T18:48:31.137Z,14.20
2019-05-16T18:51:01.142Z,14.10
2019-05-16T18:53:31.514Z,14.00
2019-05-16T18:56:02.036Z,13.90
2019-05-16T18:58:32.400Z,14.00
2019-05-16T19:01:02.765Z,13.90
2019-05-16T19:03:33.536Z,13.90
2019-05-16T19:06:04.149Z,13.80
2019-05-16T19:08:36.450Z,13.80
2019-05-16T19:11:07.708Z,13.80
2019-05-16T19:13:38.203Z,13.80
2019-05-16T19:16:08.964Z,13.70
2019-05-16T19:18:39.645Z,13.70
2019-05-16T19:21:10.567Z,13.60
2019-05-16T19:23:41.340Z,13.60
2019-05-16T19:26:12.432Z,13.50
2019-05-16T19:29:02.076Z,13.50
2019-05-16T19:31:51.646Z,13.40
2019-05-16T19:34:34.899Z,13.30
2019-05-16T19:37:23.802Z,13.30
2019-05-16T19:40:17.030Z,13.30
2019-05-16T19:43:07.251Z,13.30
2019-05-16T19:45:57.436Z,13.30
2019-05-16T19:48:47.082Z,13.20
2019-05-16T19:51:36.474Z,13.00
2019-05-16T19:54:27.006Z,12.70
2019-05-16T19:57:17.424Z,12.60
2019-05-16T20:00:07.798Z,12.50
2019-05-16T20:02:57.195Z,12.30
2019-05-16T20:05:47.687Z,12.10
2019-05-16T20:08:37.466Z,11.90
2019-05-16T20:11:27.674Z,11.80
2019-05-16T20:14:19.556Z,11.70
2019-05-16T20:17:07.955Z,11.60
2019-05-16T20:19:57.225Z,11.60
2019-05-16T20:22:46.487Z,11.50
2019-05-16T20:25:36.754Z,11.40
2019-05-16T20:28:26.765Z,11.30
2019-05-16T20:31:17.075Z,11.20
2019-05-16T20:34:09.326Z,11.20
2019-05-16T20:36:57.552Z,11.10
2019-05-16T20:39:46.934Z,11.10
2019-05-16T20:42:36.747Z,11.10
2019-05-16T20:45:27.168Z,11.10
2019-05-16T20:48:18.630Z,11.00
2019-05-16T20:51:07.743Z,11.00
2019-05-16T20:53:57.841Z,11.00
2019-05-16T20:56:49.449Z,11.00
2019-05-16T20:59:38.862Z,11.10
2019-05-16T21:02:28.444Z,11.00
2019-05-16T21:05:18.051Z,11.10
2019-05-16T21:08:07.068Z,11.00
2019-05-16T21:10:57.122Z,11.00
2019-05-16T21:13:48.625Z,11.00
2019-05-16T21:16:38.015Z,10.90
2019-05-16T21:19:27.529Z,10.90
2019-05-16T21:22:19.416Z,10.90
2019-05-16T21:25:08.950Z,10.90
2019-05-16T21:27:57.609Z,10.90
2019-05-16T21:30:47.348Z,11.00
2019-05-16T21:33:37.379Z,11.00
2019-05-16T21:36:27.362Z,11.00
2019-05-16T21:39:17.639Z,11.00
2019-05-16T21:42:07.624Z,10.90
2019-05-16T21:44:57.237Z,10.90
2019-05-16T21:47:47.071Z,10.90
2019-05-16T21:50:36.803Z,10.90
2019-05-16T21:53:27.230Z,10.90
2019-05-16T21:56:17.700Z,10.90
2019-05-16T21:59:07.132Z,10.90
2019-05-16T22:01:57.223Z,10.90
2019-05-16T22:04:47.328Z,10.90
2019-05-16T22:07:36.914Z,11.00
2019-05-16T22:10:26.746Z,11.00
2019-05-16T22:13:15.842Z,11.00
2019-05-16T22:16:07.831Z,10.90
2019-05-16T22:18:56.566Z,10.90
2019-05-16T22:21:46.033Z,10.90
2019-05-16T22:24:37.150Z,10.80
2019-05-16T22:27:26.910Z,10.80
2019-05-16T22:30:18.384Z,10.80
2019-05-16T22:33:09.248Z,10.70
2019-05-16T22:35:58.906Z,10.70
2019-05-16T22:38:48.156Z,10.70
2019-05-16T22:41:37.718Z,10.70
2019-05-16T22:44:27.214Z,10.70
2019-05-16T22:47:17.135Z,10.70
2019-05-16T22:50:07.608Z,10.70
2019-05-16T22:52:57.022Z,10.60
2019-05-16T22:55:47.736Z,10.60
2019-05-16T22:58:37.003Z,10.70
2019-05-16T23:01:27.207Z,10.60
2019-05-16T23:04:17.010Z,10.60
2019-05-16T23:07:07.023Z,10.70
2019-05-16T23:09:56.570Z,10.60
2019-05-16T23:12:45.976Z,10.60
2019-05-16T23:15:34.938Z,10.60
2019-05-16T23:18:26.576Z,10.60
2019-05-16T23:21:16.990Z,10.70
2019-05-16T23:24:06.703Z,10.60
2019-05-16T23:26:56.324Z,10.60
2019-05-16T23:29:47.416Z,10.60
2019-05-16T23:32:36.497Z,10.70
2019-05-16T23:35:26.894Z,10.70
2019-05-16T23:38:19.838Z,10.60
2019-05-16T23:41:06.542Z,10.70
2019-05-16T23:43:56.679Z,10.70
2019-05-16T23:46:47.086Z,10.70
2019-05-16T23:49:36.783Z,10.70
2019-05-16T23:52:27.356Z,10.70
2019-05-16T23:55:17.546Z,10.70
2019-05-16T23:58:07.239Z,10.70
